sensor_id;sensor_type;location;lat;lon;timestamp;pressure;altitude;pressure_sealevel;temperature;humidity
81478;BME280;70892;52.526;5.494;2023-06-22T00:01:09;102077.56;;;14.58;93.09
81478;BME280;70892;52.526;5.494;2023-06-22T00:03:35;102093.06;;;14.58;93.50
81478;BME280;70892;52.526;5.494;2023-06-22T00:06:00;102089.38;;;14.59;93.31
81478;BME280;70892;52.526;5.494;2023-06-22T00:08:25;102089.28;;;14.60;93.54
81478;BME280;70892;52.526;5.494;2023-06-22T00:10:51;102089.97;;;14.64;93.77
81478;BME280;70892;52.526;5.494;2023-06-22T00:13:17;102087.34;;;14.62;93.57
81478;BME280;70892;52.526;5.494;2023-06-22T00:15:43;102096.84;;;14.71;93.85
81478;BME280;70892;52.526;5.494;2023-06-22T00:18:10;102084.34;;;14.67;93.37
81478;BME280;70892;52.526;5.494;2023-06-22T00:20:35;102086.28;;;14.65;93.33
81478;BME280;70892;52.526;5.494;2023-06-22T00:23:05;102090.88;;;14.64;93.56
81478;BME280;70892;52.526;5.494;2023-06-22T00:25:35;102087.00;;;14.68;94.01
81478;BME280;70892;52.526;5.494;2023-06-22T00:28:02;102091.47;;;14.69;94.05
81478;BME280;70892;52.526;5.494;2023-06-22T00:30:27;102090.50;;;14.70;93.93
81478;BME280;70892;52.526;5.494;2023-06-22T00:32:53;102092.28;;;14.71;93.84
81478;BME280;70892;52.526;5.494;2023-06-22T00:35:19;102087.56;;;14.73;93.85
81478;BME280;70892;52.526;5.494;2023-06-22T00:37:44;102093.72;;;14.77;93.88
81478;BME280;70892;52.526;5.494;2023-06-22T00:40:10;102092.28;;;14.71;93.41
81478;BME280;70892;52.526;5.494;2023-06-22T00:42:40;102089.00;;;14.65;93.28
81478;BME280;70892;52.526;5.494;2023-06-22T00:45:06;102093.94;;;14.58;92.86
81478;BME280;70892;52.526;5.494;2023-06-22T00:47:32;102094.31;;;14.52;93.62
81478;BME280;70892;52.526;5.494;2023-06-22T00:49:59;102091.16;;;14.44;93.60
81478;BME280;70892;52.526;5.494;2023-06-22T00:52:26;102088.63;;;14.41;93.67
81478;BME280;70892;52.526;5.494;2023-06-22T00:54:54;102079.78;;;14.36;93.97
81478;BME280;70892;52.526;5.494;2023-06-22T00:57:21;102088.63;;;14.41;94.13
81478;BME280;70892;52.526;5.494;2023-06-22T00:59:48;102086.66;;;14.43;94.22
81478;BME280;70892;52.526;5.494;2023-06-22T01:02:14;102087.66;;;14.42;94.34
81478;BME280;70892;52.526;5.494;2023-06-22T01:04:40;102079.63;;;14.39;94.01
81478;BME280;70892;52.526;5.494;2023-06-22T01:09:47;102067.78;;;14.40;94.56
81478;BME280;70892;52.526;5.494;2023-06-22T01:12:16;102066.88;;;14.39;94.27
81478;BME280;70892;52.526;5.494;2023-06-22T01:14:47;102063.78;;;14.45;95.21
81478;BME280;70892;52.526;5.494;2023-06-22T01:17:19;102050.94;;;14.47;95.16
81478;BME280;70892;52.526;5.494;2023-06-22T01:19:54;102063.88;;;14.44;94.42
81478;BME280;70892;52.526;5.494;2023-06-22T01:22:27;102065.06;;;14.40;94.08
81478;BME280;70892;52.526;5.494;2023-06-22T01:25:19;102063.69;;;14.31;94.05
81478;BME280;70892;52.526;5.494;2023-06-22T01:28:13;102067.03;;;14.36;94.78
81478;BME280;70892;52.526;5.494;2023-06-22T01:30:45;102072.16;;;14.27;94.60
81478;BME280;70892;52.526;5.494;2023-06-22T01:33:13;102071.97;;;14.30;94.62
81478;BME280;70892;52.526;5.494;2023-06-22T01:35:39;102083.41;;;14.21;93.93
81478;BME280;70892;52.526;5.494;2023-06-22T01:38:06;102073.94;;;14.12;94.09
81478;BME280;70892;52.526;5.494;2023-06-22T01:40:33;102070.50;;;14.08;94.27
81478;BME280;70892;52.526;5.494;2023-06-22T01:43:02;102069.78;;;14.05;94.22
81478;BME280;70892;52.526;5.494;2023-06-22T01:45:28;102057.22;;;14.02;94.39
81478;BME280;70892;52.526;5.494;2023-06-22T01:47:54;102058.38;;;13.98;94.50
81478;BME280;70892;52.526;5.494;2023-06-22T01:50:20;102065.84;;;13.95;94.44
81478;BME280;70892;52.526;5.494;2023-06-22T01:52:46;102064.50;;;13.86;94.58
81478;BME280;70892;52.526;5.494;2023-06-22T01:55:11;102066.56;;;13.98;95.15
81478;BME280;70892;52.526;5.494;2023-06-22T01:57:37;102071.03;;;13.99;95.05
81478;BME280;70892;52.526;5.494;2023-06-22T02:00:06;102065.59;;;13.99;95.04
81478;BME280;70892;52.526;5.494;2023-06-22T02:02:37;102070.03;;;14.00;94.79
81478;BME280;70892;52.526;5.494;2023-06-22T02:05:08;102071.03;;;13.99;94.77
81478;BME280;70892;52.526;5.494;2023-06-22T02:07:49;102071.22;;;13.96;95.13
81478;BME280;70892;52.526;5.494;2023-06-22T02:10:19;102075.59;;;13.99;94.95
81478;BME280;70892;52.526;5.494;2023-06-22T02:12:47;102065.94;;;13.93;94.99
81478;BME280;70892;52.526;5.494;2023-06-22T02:15:13;102060.31;;;13.96;95.07
81478;BME280;70892;52.526;5.494;2023-06-22T02:17:40;102055.44;;;14.01;95.70
81478;BME280;70892;52.526;5.494;2023-06-22T02:20:13;102047.81;;;13.92;95.20
81478;BME280;70892;52.526;5.494;2023-06-22T02:22:39;102049.91;;;13.87;94.75
81478;BME280;70892;52.526;5.494;2023-06-22T02:25:05;102051.41;;;13.77;94.58
81478;BME280;70892;52.526;5.494;2023-06-22T02:27:33;102061.25;;;13.79;94.82
81478;BME280;70892;52.526;5.494;2023-06-22T02:29:59;102045.00;;;13.78;95.26
81478;BME280;70892;52.526;5.494;2023-06-22T02:32:24;102049.41;;;13.80;95.45
81478;BME280;70892;52.526;5.494;2023-06-22T02:34:49;102049.72;;;13.74;95.06
81478;BME280;70892;52.526;5.494;2023-06-22T02:37:16;102058.00;;;13.73;94.96
81478;BME280;70892;52.526;5.494;2023-06-22T02:39:41;102055.25;;;13.73;95.08
81478;BME280;70892;52.526;5.494;2023-06-22T02:42:07;102041.84;;;13.70;95.56
81478;BME280;70892;52.526;5.494;2023-06-22T02:44:32;102049.03;;;13.71;95.03
81478;BME280;70892;52.526;5.494;2023-06-22T02:46:57;102057.09;;;13.72;95.31
81478;BME280;70892;52.526;5.494;2023-06-22T02:49:23;102051.88;;;13.69;95.11
81478;BME280;70892;52.526;5.494;2023-06-22T02:51:49;102047.47;;;13.67;95.31
81478;BME280;70892;52.526;5.494;2023-06-22T02:54:15;102051.75;;;13.71;95.64
81478;BME280;70892;52.526;5.494;2023-06-22T02:56:41;102045.88;;;13.63;94.83
81478;BME280;70892;52.526;5.494;2023-06-22T02:59:09;102044.19;;;13.60;94.96
81478;BME280;70892;52.526;5.494;2023-06-22T03:01:36;102039.88;;;13.56;94.97
81478;BME280;70892;52.526;5.494;2023-06-22T03:04:08;102034.69;;;13.52;94.93
81478;BME280;70892;52.526;5.494;2023-06-22T03:06:34;102044.53;;;13.54;95.21
81478;BME280;70892;52.526;5.494;2023-06-22T03:09:01;102032.50;;;13.58;95.52
81478;BME280;70892;52.526;5.494;2023-06-22T03:11:28;102030.56;;;13.60;95.44
81478;BME280;70892;52.526;5.494;2023-06-22T03:13:53;102028.97;;;13.56;95.27
81478;BME280;70892;52.526;5.494;2023-06-22T03:16:19;102023.19;;;13.47;94.86
81478;BME280;70892;52.526;5.494;2023-06-22T03:18:45;102022.56;;;13.41;95.22
81478;BME280;70892;52.526;5.494;2023-06-22T03:21:10;102022.91;;;13.35;95.05
81478;BME280;70892;52.526;5.494;2023-06-22T03:23:35;102028.97;;;13.40;95.14
81478;BME280;70892;52.526;5.494;2023-06-22T03:26:01;102024.66;;;13.36;94.93
81478;BME280;70892;52.526;5.494;2023-06-22T03:28:27;102021.22;;;13.33;95.30
81478;BME280;70892;52.526;5.494;2023-06-22T03:30:53;102025.28;;;13.41;95.41
81478;BME280;70892;52.526;5.494;2023-06-22T03:33:18;102024.94;;;13.48;95.42
81478;BME280;70892;52.526;5.494;2023-06-22T03:35:43;102019.56;;;13.46;95.58
81478;BME280;70892;52.526;5.494;2023-06-22T03:38:09;102038.81;;;13.59;95.64
81478;BME280;70892;52.526;5.494;2023-06-22T03:40:34;102033.47;;;13.57;95.81
81478;BME280;70892;52.526;5.494;2023-06-22T03:42:59;102033.28;;;13.60;95.55
81478;BME280;70892;52.526;5.494;2023-06-22T03:45:25;102038.75;;;13.60;95.42
81478;BME280;70892;52.526;5.494;2023-06-22T03:47:50;102056.19;;;13.56;94.87
81478;BME280;70892;52.526;5.494;2023-06-22T03:50:16;102051.13;;;13.50;94.70
81478;BME280;70892;52.526;5.494;2023-06-22T03:52:41;102035.66;;;13.51;95.00
81478;BME280;70892;52.526;5.494;2023-06-22T03:55:07;102024.41;;;13.57;95.56
81478;BME280;70892;52.526;5.494;2023-06-22T03:57:33;102034.16;;;13.61;95.59
81478;BME280;70892;52.526;5.494;2023-06-22T03:59:58;102035.94;;;13.62;95.30
81478;BME280;70892;52.526;5.494;2023-06-22T04:02:24;102019.75;;;13.59;95.38
81478;BME280;70892;52.526;5.494;2023-06-22T04:04:50;102024.88;;;13.65;95.27
81478;BME280;70892;52.526;5.494;2023-06-22T04:07:15;102029.34;;;13.66;95.18
81478;BME280;70892;52.526;5.494;2023-06-22T04:09:43;102030.06;;;13.69;96.03
81478;BME280;70892;52.526;5.494;2023-06-22T04:12:08;102038.13;;;13.71;95.31
81478;BME280;70892;52.526;5.494;2023-06-22T04:14:34;102040.50;;;13.77;95.65
81478;BME280;70892;52.526;5.494;2023-06-22T04:16:59;102036.19;;;13.73;94.59
81478;BME280;70892;52.526;5.494;2023-06-22T04:19:25;102036.13;;;13.74;94.69
81478;BME280;70892;52.526;5.494;2023-06-22T04:21:50;102043.50;;;13.88;94.89
81478;BME280;70892;52.526;5.494;2023-06-22T04:24:15;102039.38;;;13.97;95.20
81478;BME280;70892;52.526;5.494;2023-06-22T04:26:41;102040.78;;;14.04;94.60
81478;BME280;70892;52.526;5.494;2023-06-22T04:29:10;102030.41;;;14.10;94.53
81478;BME280;70892;52.526;5.494;2023-06-22T04:31:36;102028.09;;;14.19;94.53
81478;BME280;70892;52.526;5.494;2023-06-22T04:34:03;102032.25;;;14.26;94.19
81478;BME280;70892;52.526;5.494;2023-06-22T04:36:38;102033.44;;;14.36;94.34
81478;BME280;70892;52.526;5.494;2023-06-22T04:39:08;102026.16;;;14.52;95.04
81478;BME280;70892;52.526;5.494;2023-06-22T04:41:38;102026.59;;;14.74;95.65
81478;BME280;70892;52.526;5.494;2023-06-22T04:44:17;102001.59;;;14.82;95.32
81478;BME280;70892;52.526;5.494;2023-06-22T04:46:57;102009.50;;;15.15;95.53
81478;BME280;70892;52.526;5.494;2023-06-22T04:49:26;102002.97;;;15.17;94.76
81478;BME280;70892;52.526;5.494;2023-06-22T04:52:08;102001.91;;;15.34;94.75
81478;BME280;70892;52.526;5.494;2023-06-22T04:54:35;102005.13;;;15.41;94.47
81478;BME280;70892;52.526;5.494;2023-06-22T04:57:02;102002.97;;;15.46;94.74
81478;BME280;70892;52.526;5.494;2023-06-22T04:59:29;102009.22;;;15.48;93.99
81478;BME280;70892;52.526;5.494;2023-06-22T05:01:59;102000.47;;;15.57;94.35
81478;BME280;70892;52.526;5.494;2023-06-22T05:04:26;102003.38;;;15.68;94.35
81478;BME280;70892;52.526;5.494;2023-06-22T05:06:53;101997.03;;;15.68;93.68
81478;BME280;70892;52.526;5.494;2023-06-22T05:09:19;102010.16;;;15.89;94.26
81478;BME280;70892;52.526;5.494;2023-06-22T05:11:45;102007.69;;;15.99;93.72
81478;BME280;70892;52.526;5.494;2023-06-22T05:14:11;102003.16;;;16.12;93.67
81478;BME280;70892;52.526;5.494;2023-06-22T05:16:37;102009.75;;;16.22;93.63
81478;BME280;70892;52.526;5.494;2023-06-22T05:19:02;102009.59;;;16.38;93.31
81478;BME280;70892;52.526;5.494;2023-06-22T05:21:31;102008.75;;;16.50;93.10
81478;BME280;70892;52.526;5.494;2023-06-22T05:23:57;102005.19;;;16.63;92.95
81478;BME280;70892;52.526;5.494;2023-06-22T05:26:26;102003.34;;;16.76;92.52
81478;BME280;70892;52.526;5.494;2023-06-22T05:28:52;102003.63;;;16.85;92.14
81478;BME280;70892;52.526;5.494;2023-06-22T05:31:18;102002.19;;;16.92;92.08
81478;BME280;70892;52.526;5.494;2023-06-22T05:33:45;102011.16;;;17.07;92.28
81478;BME280;70892;52.526;5.494;2023-06-22T05:36:11;102011.16;;;17.20;91.87
81478;BME280;70892;52.526;5.494;2023-06-22T05:38:37;102009.53;;;17.30;91.06
81478;BME280;70892;52.526;5.494;2023-06-22T05:41:03;101992.53;;;17.38;90.58
81478;BME280;70892;52.526;5.494;2023-06-22T05:43:28;102001.63;;;17.38;90.46
81478;BME280;70892;52.526;5.494;2023-06-22T05:45:54;101995.94;;;17.41;90.61
81478;BME280;70892;52.526;5.494;2023-06-22T05:48:19;102004.13;;;17.54;90.34
81478;BME280;70892;52.526;5.494;2023-06-22T05:50:45;102001.06;;;17.58;90.43
81478;BME280;70892;52.526;5.494;2023-06-22T05:53:10;101999.97;;;17.74;90.18
81478;BME280;70892;52.526;5.494;2023-06-22T05:55:36;102015.56;;;17.97;89.56
81478;BME280;70892;52.526;5.494;2023-06-22T05:58:01;102012.66;;;18.11;88.23
81478;BME280;70892;52.526;5.494;2023-06-22T06:00:28;102010.75;;;18.24;88.17
81478;BME280;70892;52.526;5.494;2023-06-22T06:02:53;102006.72;;;18.41;88.77
81478;BME280;70892;52.526;5.494;2023-06-22T06:05:19;102013.72;;;18.69;87.39
81478;BME280;70892;52.526;5.494;2023-06-22T06:07:45;102018.56;;;19.12;84.38
81478;BME280;70892;52.526;5.494;2023-06-22T06:10:11;102007.31;;;20.15;81.62
81478;BME280;70892;52.526;5.494;2023-06-22T06:12:36;102010.41;;;21.48;77.36
81478;BME280;70892;52.526;5.494;2023-06-22T06:15:03;102006.19;;;22.82;70.42
81478;BME280;70892;52.526;5.494;2023-06-22T06:17:28;102011.88;;;23.46;66.36
81478;BME280;70892;52.526;5.494;2023-06-22T06:19:53;102014.41;;;23.67;66.71
81478;BME280;70892;52.526;5.494;2023-06-22T06:22:19;102019.16;;;23.84;64.68
81478;BME280;70892;52.526;5.494;2023-06-22T06:24:46;102018.22;;;23.10;66.15
81478;BME280;70892;52.526;5.494;2023-06-22T06:27:13;102019.19;;;22.22;67.97
81478;BME280;70892;52.526;5.494;2023-06-22T06:29:38;102024.47;;;21.85;70.73
81478;BME280;70892;52.526;5.494;2023-06-22T06:32:03;102014.72;;;21.50;72.13
81478;BME280;70892;52.526;5.494;2023-06-22T06:34:29;102015.94;;;21.27;74.12
81478;BME280;70892;52.526;5.494;2023-06-22T06:36:54;102015.31;;;21.24;74.25
81478;BME280;70892;52.526;5.494;2023-06-22T06:39:19;102016.41;;;21.32;73.36
81478;BME280;70892;52.526;5.494;2023-06-22T06:41:45;102009.88;;;21.64;72.24
81478;BME280;70892;52.526;5.494;2023-06-22T06:44:11;102000.50;;;21.85;70.29
81478;BME280;70892;52.526;5.494;2023-06-22T06:46:36;102003.13;;;21.87;69.85
81478;BME280;70892;52.526;5.494;2023-06-22T06:49:03;101997.56;;;22.27;68.83
81478;BME280;70892;52.526;5.494;2023-06-22T06:51:28;102001.22;;;22.47;67.47
81478;BME280;70892;52.526;5.494;2023-06-22T06:53:53;101994.66;;;22.67;66.41
81478;BME280;70892;52.526;5.494;2023-06-22T06:56:19;101997.13;;;23.65;65.34
81478;BME280;70892;52.526;5.494;2023-06-22T06:58:44;102000.41;;;23.78;63.20
81478;BME280;70892;52.526;5.494;2023-06-22T07:01:11;101992.88;;;24.16;61.38
81478;BME280;70892;52.526;5.494;2023-06-22T07:03:37;101989.97;;;24.88;60.72
81478;BME280;70892;52.526;5.494;2023-06-22T07:06:02;101989.97;;;25.06;58.94
81478;BME280;70892;52.526;5.494;2023-06-22T07:08:28;101985.50;;;25.65;58.21
81478;BME280;70892;52.526;5.494;2023-06-22T07:10:54;101990.84;;;25.92;55.98
81478;BME280;70892;52.526;5.494;2023-06-22T07:13:19;101978.94;;;26.24;55.34
81478;BME280;70892;52.526;5.494;2023-06-22T07:15:44;101983.72;;;26.72;53.98
81478;BME280;70892;52.526;5.494;2023-06-22T07:18:10;101982.66;;;26.57;54.64
81478;BME280;70892;52.526;5.494;2023-06-22T07:20:35;101963.91;;;26.59;52.84
81478;BME280;70892;52.526;5.494;2023-06-22T07:23:01;101974.84;;;26.53;54.12
81478;BME280;70892;52.526;5.494;2023-06-22T07:25:26;101973.47;;;26.81;53.38
81478;BME280;70892;52.526;5.494;2023-06-22T07:27:59;101971.38;;;26.91;52.71
81478;BME280;70892;52.526;5.494;2023-06-22T07:30:25;101970.50;;;27.23;53.17
81478;BME280;70892;52.526;5.494;2023-06-22T07:32:50;101973.13;;;27.72;51.15
81478;BME280;70892;52.526;5.494;2023-06-22T07:35:16;101972.91;;;26.29;53.85
81478;BME280;70892;52.526;5.494;2023-06-22T07:37:42;101970.69;;;26.65;53.64
81478;BME280;70892;52.526;5.494;2023-06-22T07:40:08;101975.72;;;27.02;52.32
81478;BME280;70892;52.526;5.494;2023-06-22T07:42:33;101968.03;;;27.36;51.19
81478;BME280;70892;52.526;5.494;2023-06-22T07:44:59;101970.38;;;27.56;51.42
81478;BME280;70892;52.526;5.494;2023-06-22T07:47:24;101977.19;;;27.53;50.71
81478;BME280;70892;52.526;5.494;2023-06-22T07:49:50;101979.56;;;27.80;50.72
81478;BME280;70892;52.526;5.494;2023-06-22T07:52:15;101971.78;;;27.68;49.17
81478;BME280;70892;52.526;5.494;2023-06-22T07:54:41;101965.03;;;27.54;49.38
81478;BME280;70892;52.526;5.494;2023-06-22T07:57:06;101964.88;;;27.87;47.87
81478;BME280;70892;52.526;5.494;2023-06-22T07:59:32;101951.97;;;27.63;49.40
81478;BME280;70892;52.526;5.494;2023-06-22T08:01:57;101955.47;;;27.96;48.81
81478;BME280;70892;52.526;5.494;2023-06-22T08:04:23;101954.59;;;27.95;47.81
81478;BME280;70892;52.526;5.494;2023-06-22T08:06:48;101961.97;;;27.80;47.66
81478;BME280;70892;52.526;5.494;2023-06-22T08:09:14;101944.69;;;27.45;49.52
81478;BME280;70892;52.526;5.494;2023-06-22T08:11:40;101944.16;;;27.89;48.62
81478;BME280;70892;52.526;5.494;2023-06-22T08:14:05;101942.25;;;27.42;48.02
81478;BME280;70892;52.526;5.494;2023-06-22T08:16:30;101953.31;;;27.12;50.08
81478;BME280;70892;52.526;5.494;2023-06-22T08:18:56;101952.09;;;27.06;49.67
81478;BME280;70892;52.526;5.494;2023-06-22T08:21:21;101959.41;;;26.83;50.09
81478;BME280;70892;52.526;5.494;2023-06-22T08:23:47;101950.53;;;26.47;51.46
81478;BME280;70892;52.526;5.494;2023-06-22T08:26:14;101952.72;;;26.27;53.32
81478;BME280;70892;52.526;5.494;2023-06-22T08:28:39;101953.72;;;26.01;53.67
81478;BME280;70892;52.526;5.494;2023-06-22T08:31:05;101946.06;;;25.95;53.68
81478;BME280;70892;52.526;5.494;2023-06-22T08:33:30;101943.41;;;25.86;53.40
81478;BME280;70892;52.526;5.494;2023-06-22T08:35:56;101941.03;;;25.91;53.30
81478;BME280;70892;52.526;5.494;2023-06-22T08:38:21;101944.59;;;26.25;53.44
81478;BME280;70892;52.526;5.494;2023-06-22T08:40:47;101940.00;;;26.00;52.74
81478;BME280;70892;52.526;5.494;2023-06-22T08:43:12;101934.13;;;26.19;51.29
81478;BME280;70892;52.526;5.494;2023-06-22T08:45:37;101933.59;;;26.16;52.47
81478;BME280;70892;52.526;5.494;2023-06-22T08:48:03;101921.13;;;26.28;52.24
81478;BME280;70892;52.526;5.494;2023-06-22T08:50:28;101916.47;;;26.61;50.91
81478;BME280;70892;52.526;5.494;2023-06-22T08:52:54;101910.72;;;26.87;50.47
81478;BME280;70892;52.526;5.494;2023-06-22T08:55:19;101911.59;;;26.87;50.17
81478;BME280;70892;52.526;5.494;2023-06-22T08:57:45;101902.94;;;26.41;51.42
81478;BME280;70892;52.526;5.494;2023-06-22T09:00:10;101903.66;;;26.52;52.21
81478;BME280;70892;52.526;5.494;2023-06-22T09:02:43;101902.72;;;26.19;52.11
81478;BME280;70892;52.526;5.494;2023-06-22T09:05:09;101920.41;;;26.18;52.24
81478;BME280;70892;52.526;5.494;2023-06-22T09:07:34;101905.91;;;26.40;50.64
81478;BME280;70892;52.526;5.494;2023-06-22T09:10:00;101896.31;;;26.59;50.82
81478;BME280;70892;52.526;5.494;2023-06-22T09:12:25;101896.31;;;26.83;50.37
81478;BME280;70892;52.526;5.494;2023-06-22T09:14:52;101895.09;;;26.77;49.87
81478;BME280;70892;52.526;5.494;2023-06-22T09:17:18;101894.22;;;27.09;49.39
81478;BME280;70892;52.526;5.494;2023-06-22T09:19:43;101894.50;;;27.23;48.86
81478;BME280;70892;52.526;5.494;2023-06-22T09:22:09;101905.16;;;27.11;48.96
81478;BME280;70892;52.526;5.494;2023-06-22T09:24:34;101898.75;;;26.78;48.88
81478;BME280;70892;52.526;5.494;2023-06-22T09:27:00;101885.38;;;26.98;49.22
81478;BME280;70892;52.526;5.494;2023-06-22T09:29:25;101884.56;;;27.28;48.36
81478;BME280;70892;52.526;5.494;2023-06-22T09:31:51;101889.06;;;27.37;49.27
81478;BME280;70892;52.526;5.494;2023-06-22T09:34:18;101893.53;;;27.46;48.21
81478;BME280;70892;52.526;5.494;2023-06-22T09:36:46;101884.66;;;27.43;46.72
81478;BME280;70892;52.526;5.494;2023-06-22T09:39:11;101887.56;;;27.27;47.50
81478;BME280;70892;52.526;5.494;2023-06-22T09:41:36;101888.78;;;27.24;48.89
81478;BME280;70892;52.526;5.494;2023-06-22T09:44:02;101885.47;;;27.13;49.19
81478;BME280;70892;52.526;5.494;2023-06-22T09:46:27;101876.25;;;27.20;48.24
81478;BME280;70892;52.526;5.494;2023-06-22T09:48:53;101882.06;;;26.94;48.67
81478;BME280;70892;52.526;5.494;2023-06-22T09:51:19;101890.75;;;26.83;49.13
81478;BME280;70892;52.526;5.494;2023-06-22T09:53:47;101892.16;;;26.95;49.13
81478;BME280;70892;52.526;5.494;2023-06-22T09:56:12;101888.09;;;27.14;49.34
81478;BME280;70892;52.526;5.494;2023-06-22T09:58:41;101886.59;;;27.42;47.42
81478;BME280;70892;52.526;5.494;2023-06-22T10:01:06;101892.16;;;27.42;48.38
81478;BME280;70892;52.526;5.494;2023-06-22T10:03:32;101886.50;;;27.20;47.44
81478;BME280;70892;52.526;5.494;2023-06-22T10:05:57;101884.91;;;27.33;46.63
81478;BME280;70892;52.526;5.494;2023-06-22T10:08:23;101880.72;;;27.76;45.98
81478;BME280;70892;52.526;5.494;2023-06-22T10:10:48;101878.53;;;28.17;46.56
81478;BME280;70892;52.526;5.494;2023-06-22T10:13:13;101883.16;;;28.02;46.27
81478;BME280;70892;52.526;5.494;2023-06-22T10:15:39;101871.28;;;27.46;46.98
81478;BME280;70892;52.526;5.494;2023-06-22T10:18:05;101871.75;;;27.58;47.04
81478;BME280;70892;52.526;5.494;2023-06-22T10:20:30;101866.28;;;27.34;46.38
81478;BME280;70892;52.526;5.494;2023-06-22T10:22:56;101867.75;;;27.14;46.81
81478;BME280;70892;52.526;5.494;2023-06-22T10:25:21;101874.06;;;26.91;47.09
81478;BME280;70892;52.526;5.494;2023-06-22T10:27:47;101867.84;;;26.65;47.80
81478;BME280;70892;52.526;5.494;2023-06-22T10:30:13;101860.53;;;26.15;46.17
81478;BME280;70892;52.526;5.494;2023-06-22T10:32:39;101853.06;;;26.16;48.11
81478;BME280;70892;52.526;5.494;2023-06-22T10:35:05;101854.81;;;26.09;50.33
81478;BME280;70892;52.526;5.494;2023-06-22T10:37:31;101854.44;;;26.12;49.01
81478;BME280;70892;52.526;5.494;2023-06-22T10:39:56;101850.09;;;26.01;49.91
81478;BME280;70892;52.526;5.494;2023-06-22T10:42:22;101850.44;;;25.90;50.51
81478;BME280;70892;52.526;5.494;2023-06-22T10:44:47;101849.13;;;25.60;50.60
81478;BME280;70892;52.526;5.494;2023-06-22T10:47:13;101841.44;;;25.38;52.03
81478;BME280;70892;52.526;5.494;2023-06-22T10:49:39;101852.16;;;25.41;52.06
81478;BME280;70892;52.526;5.494;2023-06-22T10:52:06;101853.16;;;25.23;50.36
81478;BME280;70892;52.526;5.494;2023-06-22T10:54:32;101853.44;;;25.12;50.93
81478;BME280;70892;52.526;5.494;2023-06-22T10:56:58;101861.50;;;25.23;51.34
81478;BME280;70892;52.526;5.494;2023-06-22T10:59:24;101865.28;;;25.22;52.39
81478;BME280;70892;52.526;5.494;2023-06-22T11:01:51;101862.91;;;25.01;52.55
81478;BME280;70892;52.526;5.494;2023-06-22T11:04:16;101864.91;;;24.91;53.16
81478;BME280;70892;52.526;5.494;2023-06-22T11:06:43;101865.84;;;25.00;52.33
81478;BME280;70892;52.526;5.494;2023-06-22T11:09:08;101862.06;;;25.01;53.04
81478;BME280;70892;52.526;5.494;2023-06-22T11:11:34;101866.56;;;25.02;52.75
81478;BME280;70892;52.526;5.494;2023-06-22T11:13:59;101871.97;;;25.12;53.65
81478;BME280;70892;52.526;5.494;2023-06-22T11:16:24;101863.00;;;25.18;52.28
81478;BME280;70892;52.526;5.494;2023-06-22T11:18:50;101863.09;;;25.00;52.70
81478;BME280;70892;52.526;5.494;2023-06-22T11:21:15;101865.69;;;25.01;53.33
81478;BME280;70892;52.526;5.494;2023-06-22T11:23:42;101864.50;;;24.78;52.94
81478;BME280;70892;52.526;5.494;2023-06-22T11:26:07;101869.66;;;24.73;53.77
81478;BME280;70892;52.526;5.494;2023-06-22T11:28:33;101865.00;;;24.82;52.94
81478;BME280;70892;52.526;5.494;2023-06-22T11:30:58;101878.72;;;24.83;53.17
81478;BME280;70892;52.526;5.494;2023-06-22T11:33:24;101870.50;;;24.74;52.83
81478;BME280;70892;52.526;5.494;2023-06-22T11:35:49;101866.47;;;24.68;52.08
81478;BME280;70892;52.526;5.494;2023-06-22T11:38:15;101860.19;;;24.58;53.41
81478;BME280;70892;52.526;5.494;2023-06-22T11:40:40;101864.25;;;24.46;53.04
81478;BME280;70892;52.526;5.494;2023-06-22T11:43:05;101859.69;;;24.37;53.11
81478;BME280;70892;52.526;5.494;2023-06-22T11:45:31;101856.69;;;24.30;53.64
81478;BME280;70892;52.526;5.494;2023-06-22T11:47:56;101864.78;;;24.23;53.84
81478;BME280;70892;52.526;5.494;2023-06-22T11:50:21;101852.63;;;24.24;54.20
81478;BME280;70892;52.526;5.494;2023-06-22T11:52:47;101847.28;;;24.23;54.43
81478;BME280;70892;52.526;5.494;2023-06-22T11:55:12;101845.28;;;24.33;53.66
81478;BME280;70892;52.526;5.494;2023-06-22T11:57:52;101844.34;;;24.24;54.75
81478;BME280;70892;52.526;5.494;2023-06-22T12:00:18;101838.00;;;24.14;55.37
81478;BME280;70892;52.526;5.494;2023-06-22T12:02:44;101839.34;;;24.10;56.42
81478;BME280;70892;52.526;5.494;2023-06-22T12:05:12;101828.91;;;24.04;57.01
81478;BME280;70892;52.526;5.494;2023-06-22T12:07:38;101823.13;;;23.97;57.73
81478;BME280;70892;52.526;5.494;2023-06-22T12:10:04;101815.06;;;23.86;60.32
81478;BME280;70892;52.526;5.494;2023-06-22T12:12:29;101811.59;;;23.67;59.55
81478;BME280;70892;52.526;5.494;2023-06-22T12:14:55;101806.22;;;23.38;60.33
81478;BME280;70892;52.526;5.494;2023-06-22T12:17:20;101805.22;;;23.11;61.41
81478;BME280;70892;52.526;5.494;2023-06-22T12:19:45;101808.50;;;22.97;62.01
81478;BME280;70892;52.526;5.494;2023-06-22T12:22:11;101805.00;;;22.95;58.82
81478;BME280;70892;52.526;5.494;2023-06-22T12:24:36;101802.56;;;22.92;61.25
81478;BME280;70892;52.526;5.494;2023-06-22T12:27:02;101796.72;;;22.95;60.31
81478;BME280;70892;52.526;5.494;2023-06-22T12:29:29;101805.63;;;22.89;61.69
81478;BME280;70892;52.526;5.494;2023-06-22T12:31:55;101802.75;;;22.71;63.79
81478;BME280;70892;52.526;5.494;2023-06-22T12:34:20;101794.22;;;22.55;63.27
81478;BME280;70892;52.526;5.494;2023-06-22T12:36:46;101796.75;;;22.39;64.38
81478;BME280;70892;52.526;5.494;2023-06-22T12:39:13;101798.78;;;22.37;68.58
81478;BME280;70892;52.526;5.494;2023-06-22T12:41:38;101795.31;;;22.35;67.14
81478;BME280;70892;52.526;5.494;2023-06-22T12:44:04;101794.59;;;22.33;67.06
81478;BME280;70892;52.526;5.494;2023-06-22T12:46:29;101793.44;;;22.35;65.78
81478;BME280;70892;52.526;5.494;2023-06-22T12:49:00;101788.50;;;22.29;64.86